createdAt,value
2023-02-25T00:00:34.395Z,97893.81
2023-02-25T00:03:02.027Z,97891.03
2023-02-25T00:05:31.768Z,97882.50
2023-02-25T00:07:59.672Z,97880.97
2023-02-25T00:10:27.135Z,97881.59
2023-02-25T00:12:54.302Z,97885.03
2023-02-25T00:15:21.497Z,97884.00
2023-02-25T00:17:49.944Z,97880.06
2023-02-25T00:20:17.242Z,97868.66
2023-02-25T00:22:44.434Z,97873.31
2023-02-25T00:25:11.865Z,97861.81
2023-02-25T00:27:39.012Z,97859.63
2023-02-25T00:30:06.296Z,97865.47
2023-02-25T00:32:33.781Z,97851.28
2023-02-25T00:35:01.858Z,97850.72
2023-02-25T00:37:30.186Z,97846.63
2023-02-25T00:39:57.677Z,97850.41
2023-02-25T00:42:27.085Z,97836.63
2023-02-25T00:44:54.237Z,97831.47
2023-02-25T00:47:23.227Z,97821.06
2023-02-25T00:49:52.213Z,97817.66
2023-02-25T00:52:19.362Z,97816.66
2023-02-25T00:54:47.122Z,97815.03
2023-02-25T00:57:14.478Z,97810.44
2023-02-25T00:59:41.621Z,97799.72
2023-02-25T01:02:09.052Z,97792.31
2023-02-25T01:04:36.187Z,97784.75
2023-02-25T01:07:03.881Z,97784.56
2023-02-25T01:09:32.723Z,97781.78
2023-02-25T01:11:59.852Z,97768.50
2023-02-25T01:14:27.180Z,97766.34
2023-02-25T01:16:57.766Z,97767.31
2023-02-25T01:19:25.579Z,97749.66
2023-02-25T01:21:54.267Z,97748.16
2023-02-25T01:24:28.884Z,97747.75
2023-02-25T01:26:57.408Z,97740.72
2023-02-25T01:29:26.434Z,97736.81
2023-02-25T01:31:58.161Z,97730.47
2023-02-25T01:34:26.058Z,97726.44
2023-02-25T01:36:53.266Z,97732.03
2023-02-25T01:39:20.825Z,97724.16
2023-02-25T01:41:51.507Z,97731.66
2023-02-25T01:44:22.974Z,97729.91
2023-02-25T01:46:52.594Z,97716.75
2023-02-25T01:49:35.650Z,97716.94
2023-02-25T01:52:04.788Z,97718.06
2023-02-25T01:54:32.198Z,97721.28
2023-02-25T01:56:59.388Z,97709.09
2023-02-25T01:59:27.918Z,97710.75
2023-02-25T02:01:55.063Z,97715.91
2023-02-25T02:04:23.232Z,97699.72
2023-02-25T02:06:50.743Z,97702.59
2023-02-25T02:09:25.610Z,97702.19
2023-02-25T02:11:53.126Z,97707.94
2023-02-25T02:14:21.535Z,97703.31
2023-02-25T02:16:58.618Z,97690.28
2023-02-25T02:19:26.005Z,97688.78
2023-02-25T02:21:55.936Z,97678.75
2023-02-25T02:24:28.834Z,97683.00
2023-02-25T02:26:58.242Z,97673.81
2023-02-25T02:29:26.594Z,97663.78
2023-02-25T02:31:54.125Z,97660.28
2023-02-25T02:34:33.771Z,97654.13
2023-02-25T02:37:18.880Z,97649.22
2023-02-25T02:39:46.206Z,97647.56
2023-02-25T02:42:32.739Z,97651.59
2023-02-25T02:45:01.156Z,97649.78
2023-02-25T02:47:28.778Z,97657.81
2023-02-25T02:49:57.825Z,97652.72
2023-02-25T02:52:27.824Z,97656.34
2023-02-25T02:54:55.919Z,97647.13
2023-02-25T02:57:23.141Z,97644.03
2023-02-25T02:59:52.370Z,97655.19
2023-02-25T03:02:23.974Z,97653.69
2023-02-25T03:04:52.051Z,97646.37
2023-02-25T03:07:19.287Z,97661.37
2023-02-25T03:09:50.898Z,97660.16
2023-02-25T03:12:18.306Z,97671.72
2023-02-25T03:14:45.528Z,97673.06
2023-02-25T03:17:22.702Z,97677.88
2023-02-25T03:19:59.944Z,97669.00
2023-02-25T03:22:28.026Z,97667.47
2023-02-25T03:25:05.045Z,97671.81
2023-02-25T03:27:58.694Z,97672.41
2023-02-25T03:30:33.380Z,97658.41
2023-02-25T03:33:05.698Z,97669.41
2023-02-25T03:35:33.164Z,97663.72
2023-02-25T03:38:02.127Z,97673.00
2023-02-25T03:40:29.332Z,97664.97
2023-02-25T03:42:59.037Z,97669.00
2023-02-25T03:45:27.096Z,97671.31
2023-02-25T03:47:54.255Z,97664.59
2023-02-25T03:50:21.636Z,97668.97
2023-02-25T03:52:51.127Z,97668.59
2023-02-25T03:55:19.378Z,97675.63
2023-02-25T03:57:48.319Z,97678.59
2023-02-25T04:00:19.133Z,97673.81
2023-02-25T04:02:47.144Z,97673.41
2023-02-25T04:05:14.852Z,97666.75
2023-02-25T04:07:42.130Z,97664.28
2023-02-25T04:10:10.656Z,97666.75
2023-02-25T04:12:37.785Z,97669.78
2023-02-25T04:15:06.042Z,97670.78
2023-02-25T04:17:33.836Z,97675.47
2023-02-25T04:20:00.968Z,97672.53
2023-02-25T04:22:28.116Z,97679.38
2023-02-25T04:24:55.566Z,97680.50
2023-02-25T04:27:22.733Z,97681.44
2023-02-25T04:29:49.842Z,97679.09
2023-02-25T04:32:17.365Z,97683.41
2023-02-25T04:34:44.556Z,97684.97
2023-02-25T04:37:11.719Z,97699.34
2023-02-25T04:39:39.146Z,97709.59
2023-02-25T04:42:06.333Z,97719.34
2023-02-25T04:44:33.626Z,97721.31
2023-02-25T04:47:01.063Z,97725.00
2023-02-25T04:49:28.178Z,97723.22
2023-02-25T04:51:55.317Z,97729.97
2023-02-25T04:54:22.767Z,97721.13
2023-02-25T04:56:49.953Z,97719.63
2023-02-25T04:59:17.162Z,97732.44
2023-02-25T05:01:44.768Z,97754.53
2023-02-25T05:04:11.957Z,97760.81
2023-02-25T05:06:39.263Z,97760.13
2023-02-25T05:09:08.740Z,97769.53
2023-02-25T05:11:37.205Z,97759.78
2023-02-25T05:14:04.332Z,97763.44
2023-02-25T05:16:31.842Z,97773.00
2023-02-25T05:18:59.039Z,97776.03
2023-02-25T05:21:26.593Z,97784.41
2023-02-25T05:23:54.278Z,97786.91
2023-02-25T05:26:22.465Z,97786.88
2023-02-25T05:28:53.138Z,97790.75
2023-02-25T05:31:20.791Z,97792.97
2023-02-25T05:33:48.083Z,97791.78
2023-02-25T05:36:15.601Z,97798.63
2023-02-25T05:38:43.237Z,97792.94
2023-02-25T05:41:10.629Z,97792.53
2023-02-25T05:43:38.239Z,97791.44
2023-02-25T05:46:09.118Z,97790.53
2023-02-25T05:48:36.315Z,97796.78
2023-02-25T05:51:04.750Z,97802.66
2023-02-25T05:53:32.214Z,97806.53
2023-02-25T05:55:59.341Z,97813.03
2023-02-25T05:58:26.525Z,97812.84
2023-02-25T06:00:54.055Z,97820.38
2023-02-25T06:03:21.777Z,97828.94
2023-02-25T06:05:48.989Z,97831.00
2023-02-25T06:08:16.115Z,97837.75
2023-02-25T06:10:43.549Z,97855.78
2023-02-25T06:13:11.167Z,97864.41
2023-02-25T06:15:38.943Z,97875.78
2023-02-25T06:18:06.585Z,97882.75
2023-02-25T06:20:35.262Z,97885.97
2023-02-25T06:23:02.866Z,97876.72
2023-02-25T06:25:30.493Z,97878.94
2023-02-25T06:27:58.198Z,97884.50
2023-02-25T06:30:25.502Z,97879.81
2023-02-25T06:32:53.103Z,97879.63
2023-02-25T06:35:23.454Z,97869.53
2023-02-25T06:37:51.213Z,97874.75
2023-02-25T06:40:18.681Z,97878.94
2023-02-25T06:42:45.822Z,97872.59
2023-02-25T06:45:13.124Z,97880.06
2023-02-25T06:47:40.952Z,97882.44
2023-02-25T06:50:10.764Z,97896.66
2023-02-25T06:52:37.953Z,97894.75
2023-02-25T06:55:06.824Z,97893.00
2023-02-25T06:57:34.234Z,97902.72
2023-02-25T07:00:01.437Z,97907.44
2023-02-25T07:02:28.916Z,97910.38
2023-02-25T07:04:56.246Z,97909.91
2023-02-25T07:07:23.492Z,97911.41
2023-02-25T07:09:50.901Z,97920.19
2023-02-25T07:12:18.315Z,97920.84
2023-02-25T07:14:45.626Z,97917.53
2023-02-25T07:17:13.085Z,97930.78
2023-02-25T07:19:40.251Z,97933.28
2023-02-25T07:22:09.909Z,97935.41
2023-02-25T07:24:37.430Z,97924.56
2023-02-25T07:27:04.630Z,97928.41
2023-02-25T07:29:32.014Z,97918.44
2023-02-25T07:32:00.207Z,97916.78
2023-02-25T07:34:27.493Z,97910.91
2023-02-25T07:36:54.656Z,97891.06
2023-02-25T07:39:22.091Z,97895.31
2023-02-25T07:41:49.242Z,97899.81
2023-02-25T07:44:17.338Z,97914.19
2023-02-25T07:46:44.831Z,97920.00
2023-02-25T07:49:12.134Z,97927.59
2023-02-25T07:51:39.311Z,97925.69
2023-02-25T07:54:06.707Z,97923.09
2023-02-25T07:56:33.917Z,97940.34
2023-02-25T07:59:01.284Z,97933.44
2023-02-25T08:01:33.960Z,97933.38
2023-02-25T08:04:04.279Z,97938.75
2023-02-25T08:06:32.129Z,97932.00
2023-02-25T08:08:59.340Z,97935.44
2023-02-25T08:11:27.499Z,97940.44
2023-02-25T08:13:54.735Z,97941.25
2023-02-25T08:16:22.413Z,97936.94
2023-02-25T08:18:49.995Z,97943.50
2023-02-25T08:21:21.797Z,97941.63
2023-02-25T08:23:50.249Z,97952.19
2023-02-25T08:26:17.873Z,97949.22
2023-02-25T08:28:45.682Z,97946.34
2023-02-25T08:31:13.216Z,97956.09
2023-02-25T08:33:41.137Z,97965.37
2023-02-25T08:36:27.790Z,97980.16
2023-02-25T08:38:55.449Z,97984.47
2023-02-25T08:41:23.017Z,97973.00
2023-02-25T08:43:52.105Z,97982.94
2023-02-25T08:46:21.212Z,97978.19
2023-02-25T08:48:49.366Z,97974.78
2023-02-25T08:51:16.522Z,97970.44
2023-02-25T08:53:43.934Z,97978.53
2023-02-25T08:56:12.402Z,97987.84
2023-02-25T08:58:39.939Z,97984.22
2023-02-25T09:01:09.099Z,98002.03
2023-02-25T09:03:36.407Z,97982.50
2023-02-25T09:06:03.611Z,97980.63
2023-02-25T09:08:31.524Z,97967.78
2023-02-25T09:10:58.716Z,97972.72
2023-02-25T09:13:25.866Z,97971.59
2023-02-25T09:15:57.392Z,97980.75
2023-02-25T09:18:24.768Z,98001.00
2023-02-25T09:20:52.050Z,97998.66
2023-02-25T09:23:19.476Z,98002.22
2023-02-25T09:25:46.894Z,98014.34
2023-02-25T09:28:14.048Z,98042.28
2023-02-25T09:30:43.777Z,98019.91
2023-02-25T09:33:11.046Z,98007.84
2023-02-25T09:35:38.390Z,98013.47
2023-02-25T09:38:05.808Z,97998.06
2023-02-25T09:40:33.020Z,97990.28
2023-02-25T09:43:03.182Z,97970.22
2023-02-25T09:45:30.680Z,97978.53
2023-02-25T09:47:58.765Z,97992.84
2023-02-25T09:50:27.524Z,98019.19
2023-02-25T09:53:15.318Z,98023.38
2023-02-25T09:55:43.695Z,98012.09
2023-02-25T09:58:11.068Z,98004.13
2023-02-25T10:00:43.279Z,97998.28
2023-02-25T10:03:16.891Z,98008.66
2023-02-25T10:05:44.276Z,98014.16
2023-02-25T10:08:26.984Z,98003.06
2023-02-25T10:11:01.716Z,97990.59
2023-02-25T10:13:46.479Z,97993.81
2023-02-25T10:16:18.420Z,97996.84
2023-02-25T10:18:48.870Z,98009.00
2023-02-25T10:21:35.372Z,98029.28
2023-02-25T10:24:13.640Z,98019.66
2023-02-25T10:26:42.612Z,98022.59
2023-02-25T10:29:14.357Z,98013.59
2023-02-25T10:31:44.129Z,97996.56
2023-02-25T10:34:28.104Z,98003.59
2023-02-25T10:36:56.562Z,98011.87
2023-02-25T10:39:24.401Z,98012.41
2023-02-25T10:41:51.586Z,98008.47
2023-02-25T10:44:18.760Z,98006.31
2023-02-25T10:47:02.904Z,98007.66
2023-02-25T10:49:30.683Z,98017.63
2023-02-25T10:51:58.852Z,98008.19
2023-02-25T10:54:27.885Z,98014.97
2023-02-25T10:56:55.070Z,98023.69
2023-02-25T10:59:31.122Z,98026.66
2023-02-25T11:01:59.230Z,98033.09
2023-02-25T11:04:32.776Z,98030.41
2023-02-25T11:07:00.011Z,98025.72
2023-02-25T11:09:29.389Z,98015.91
2023-02-25T11:12:00.293Z,98010.75
2023-02-25T11:14:31.352Z,98021.00
2023-02-25T11:17:02.801Z,98014.47
2023-02-25T11:19:31.683Z,97994.13
2023-02-25T11:21:59.658Z,97967.84
2023-02-25T11:24:31.369Z,97957.97
2023-02-25T11:26:58.972Z,97961.22
2023-02-25T11:29:29.173Z,97942.16
2023-02-25T11:31:59.381Z,97946.69
2023-02-25T11:34:27.451Z,97948.22
2023-02-25T11:36:54.662Z,97941.13
2023-02-25T11:39:22.966Z,97950.22
2023-02-25T11:41:51.336Z,97974.06
2023-02-25T11:44:23.186Z,97975.88
2023-02-25T11:46:56.699Z,97992.50
2023-02-25T11:49:29.492Z,97982.09
2023-02-25T11:52:02.922Z,97986.97
2023-02-25T11:54:31.737Z,97979.53
2023-02-25T11:57:17.649Z,97974.75
2023-02-25T11:59:48.166Z,97961.69
2023-02-25T12:02:20.565Z,97959.22
2023-02-25T12:04:50.836Z,97959.72
2023-02-25T12:07:36.923Z,97938.66
2023-02-25T12:10:23.060Z,97940.12
2023-02-25T12:13:19.750Z,97937.63
2023-02-25T12:16:07.964Z,97924.59
2023-02-25T12:18:41.079Z,97937.63
2023-02-25T12:21:14.414Z,97937.28
2023-02-25T12:23:44.625Z,97931.44
2023-02-25T12:26:12.480Z,97934.47
2023-02-25T12:28:45.688Z,97926.75
2023-02-25T12:31:19.957Z,97909.97
2023-02-25T12:33:50.302Z,97934.84
2023-02-25T12:36:23.685Z,97934.72
2023-02-25T12:39:09.339Z,97928.59
2023-02-25T12:41:40.563Z,97915.66
2023-02-25T12:44:15.130Z,97923.78
2023-02-25T12:46:46.112Z,97915.31
2023-02-25T12:49:32.310Z,97936.47
2023-02-25T12:52:03.690Z,97920.66
2023-02-25T12:54:36.284Z,97923.13
2023-02-25T12:57:03.675Z,97895.19
2023-02-25T12:59:34.804Z,97903.66
2023-02-25T13:02:21.784Z,97913.28
2023-02-25T13:05:09.531Z,97904.72
2023-02-25T13:07:48.259Z,97914.78
2023-02-25T13:10:30.922Z,97921.78
2023-02-25T13:13:17.149Z,97917.63
2023-02-25T13:15:44.484Z,97917.69
2023-02-25T13:18:19.230Z,97911.34
2023-02-25T13:21:05.867Z,97943.91
2023-02-25T13:23:40.107Z,97911.78
2023-02-25T13:26:26.576Z,97908.44
2023-02-25T13:29:09.235Z,97925.16
2023-02-25T13:31:43.410Z,97939.66
2023-02-25T13:34:29.351Z,97944.09
2023-02-25T13:37:05.145Z,97944.59
2023-02-25T13:39:54.493Z,97939.16
2023-02-25T13:42:27.565Z,97949.19
2023-02-25T13:45:10.057Z,97931.28
2023-02-25T13:47:42.347Z,97910.72
2023-02-25T13:50:28.248Z,97930.97
2023-02-25T13:53:14.433Z,97952.44
2023-02-25T13:56:11.664Z,97981.47
2023-02-25T13:58:57.979Z,97986.63
2023-02-25T14:01:30.131Z,97962.84
2023-02-25T14:04:03.724Z,97994.19
2023-02-25T14:06:35.775Z,98002.56
2023-02-25T14:09:06.721Z,97988.75
2023-02-25T14:11:39.196Z,97993.88
2023-02-25T14:14:13.303Z,97986.84
2023-02-25T14:16:44.869Z,98002.06
2023-02-25T14:19:15.330Z,97999.88
2023-02-25T14:21:55.061Z,97995.16
2023-02-25T14:24:24.509Z,98005.69
2023-02-25T14:26:56.227Z,98009.63
2023-02-25T14:29:39.124Z,98004.03
2023-02-25T14:32:21.799Z,97987.50
2023-02-25T14:35:01.771Z,97987.84
2023-02-25T14:37:35.341Z,97993.91
2023-02-25T14:40:05.559Z,97999.00
2023-02-25T14:42:48.415Z,98007.28
2023-02-25T14:45:19.078Z,98008.56
2023-02-25T14:47:46.580Z,98017.72
2023-02-25T14:50:13.809Z,98030.69
2023-02-25T14:52:41.211Z,98042.84
2023-02-25T14:55:26.970Z,98050.72
2023-02-25T14:57:54.336Z,98055.19
2023-02-25T15:00:27.665Z,98046.03
2023-02-25T15:03:16.293Z,98047.78
2023-02-25T15:06:03.708Z,98049.00
2023-02-25T15:08:50.252Z,98031.25
2023-02-25T15:11:36.158Z,98030.25
2023-02-25T15:14:07.985Z,98022.78
2023-02-25T15:16:41.725Z,98023.84
2023-02-25T15:19:27.217Z,98032.44
2023-02-25T15:22:13.281Z,98035.78
2023-02-25T15:24:41.396Z,98041.59
2023-02-25T15:27:27.041Z,98051.16
2023-02-25T15:30:02.066Z,98050.06
2023-02-25T15:32:31.025Z,98053.19
2023-02-25T15:35:00.064Z,98057.13
2023-02-25T15:37:30.748Z,98059.69
2023-02-25T15:40:12.937Z,98062.28
2023-02-25T15:42:46.404Z,98062.41
2023-02-25T15:45:28.787Z,98053.72
2023-02-25T15:48:08.404Z,98063.69
2023-02-25T15:50:47.759Z,98066.38
2023-02-25T15:53:36.851Z,98075.97
2023-02-25T15:56:03.996Z,98063.63
2023-02-25T15:58:31.373Z,98072.84
2023-02-25T16:01:04.847Z,98078.66
2023-02-25T16:03:32.442Z,98078.78
2023-02-25T16:06:00.602Z,98078.19
2023-02-25T16:08:28.895Z,98078.03
2023-02-25T16:10:56.398Z,98076.03
2023-02-25T16:13:26.752Z,98078.63
2023-02-25T16:15:54.052Z,98079.13
2023-02-25T16:18:27.671Z,98077.94
2023-02-25T16:20:58.475Z,98071.28
2023-02-25T16:23:27.070Z,98071.81
2023-02-25T16:26:01.744Z,98068.47
2023-02-25T16:28:42.131Z,98073.16
2023-02-25T16:31:30.404Z,98073.66
2023-02-25T16:33:57.968Z,98080.03
2023-02-25T16:36:44.293Z,98091.41
2023-02-25T16:39:12.701Z,98096.97
2023-02-25T16:41:40.499Z,98088.41
2023-02-25T16:44:08.180Z,98087.91
2023-02-25T16:46:37.424Z,98092.12
2023-02-25T16:49:11.513Z,98092.78
2023-02-25T16:51:39.738Z,98109.41
2023-02-25T16:54:09.173Z,98115.44
2023-02-25T16:56:36.402Z,98118.13
2023-02-25T16:59:15.751Z,98134.91
2023-02-25T17:01:47.876Z,98143.13
2023-02-25T17:04:17.158Z,98143.78
2023-02-25T17:06:44.358Z,98148.16
2023-02-25T17:09:24.448Z,98150.31
2023-02-25T17:11:55.104Z,98149.97
2023-02-25T17:14:22.329Z,98137.91
2023-02-25T17:16:49.736Z,98149.97
2023-02-25T17:19:17.588Z,98174.31
2023-02-25T17:21:46.521Z,98187.53
2023-02-25T17:24:14.697Z,98188.88
2023-02-25T17:26:46.447Z,98209.00
2023-02-25T17:29:14.549Z,98213.50
2023-02-25T17:31:46.394Z,98211.31
2023-02-25T17:34:14.393Z,98201.91
2023-02-25T17:36:41.988Z,98179.19
2023-02-25T17:39:13.651Z,98157.75
2023-02-25T17:41:43.746Z,98171.03
2023-02-25T17:44:31.454Z,98202.81
2023-02-25T17:46:58.798Z,98205.62
2023-02-25T17:49:31.263Z,98191.72
2023-02-25T17:51:59.577Z,98196.97
2023-02-25T17:54:27.865Z,98193.53
2023-02-25T17:56:56.088Z,98180.19
2023-02-25T17:59:38.205Z,98180.84
2023-02-25T18:02:24.668Z,98183.78
2023-02-25T18:04:52.253Z,98182.16
2023-02-25T18:07:21.262Z,98205.78
2023-02-25T18:09:48.992Z,98191.91
2023-02-25T18:12:30.011Z,98202.00
2023-02-25T18:14:58.360Z,98206.22
2023-02-25T18:17:25.913Z,98207.56
2023-02-25T18:19:56.370Z,98210.66
2023-02-25T18:22:23.513Z,98203.97
2023-02-25T18:24:51.924Z,98214.41
2023-02-25T18:27:20.909Z,98230.44
2023-02-25T18:29:48.492Z,98212.63
2023-02-25T18:32:16.121Z,98174.63
2023-02-25T18:34:43.527Z,98154.53
2023-02-25T18:37:13.043Z,98173.56
2023-02-25T18:39:40.759Z,98187.59
2023-02-25T18:42:10.479Z,98187.19
2023-02-25T18:44:37.641Z,98204.22
2023-02-25T18:47:05.061Z,98225.66
2023-02-25T18:49:32.424Z,98218.41
2023-02-25T18:51:59.582Z,98226.31
2023-02-25T18:54:27.176Z,98238.19
2023-02-25T18:56:54.551Z,98243.44
2023-02-25T18:59:21.732Z,98233.09
2023-02-25T19:01:50.562Z,98233.00
2023-02-25T19:04:17.969Z,98238.25
2023-02-25T19:06:46.760Z,98254.91
2023-02-25T19:09:14.239Z,98262.66
2023-02-25T19:11:41.638Z,98261.69
2023-02-25T19:14:08.818Z,98267.09
2023-02-25T19:16:36.589Z,98280.25
2023-02-25T19:19:04.104Z,98285.69
2023-02-25T19:21:32.022Z,98278.66
2023-02-25T19:23:59.629Z,98287.31
2023-02-25T19:26:27.271Z,98292.16
2023-02-25T19:28:54.567Z,98278.63
2023-02-25T19:31:22.241Z,98264.16
2023-02-25T19:33:49.519Z,98278.25
2023-02-25T19:36:16.684Z,98278.06
2023-02-25T19:38:44.323Z,98277.34
2023-02-25T19:41:14.205Z,98278.34
2023-02-25T19:43:41.369Z,98285.72
2023-02-25T19:46:09.117Z,98272.84
2023-02-25T19:48:36.321Z,98274.91
2023-02-25T19:51:07.685Z,98263.84
2023-02-25T19:53:35.743Z,98249.28
2023-02-25T19:56:07.835Z,98254.53
2023-02-25T19:58:35.336Z,98258.06
2023-02-25T20:01:03.772Z,98251.97
2023-02-25T20:03:31.285Z,98266.47
2023-02-25T20:06:03.652Z,98277.25
2023-02-25T20:08:31.224Z,98278.09
2023-02-25T20:10:58.963Z,98287.84
2023-02-25T20:13:26.161Z,98298.56
2023-02-25T20:15:59.179Z,98287.94
2023-02-25T20:18:26.554Z,98292.22
2023-02-25T20:20:54.057Z,98286.84
2023-02-25T20:23:21.202Z,98285.13
2023-02-25T20:25:48.578Z,98290.09
2023-02-25T20:28:16.158Z,98288.03
2023-02-25T20:30:43.625Z,98289.59
2023-02-25T20:33:11.415Z,98283.28
2023-02-25T20:35:39.206Z,98287.09
2023-02-25T20:38:27.263Z,98275.44
2023-02-25T20:40:54.796Z,98278.59
2023-02-25T20:43:22.010Z,98272.41
2023-02-25T20:45:49.469Z,98287.25
2023-02-25T20:48:21.382Z,98302.13
2023-02-25T20:50:48.714Z,98277.09
2023-02-25T20:53:17.244Z,98275.50
2023-02-25T20:55:44.870Z,98286.50
2023-02-25T20:58:12.060Z,98289.88
2023-02-25T21:00:39.527Z,98289.13
2023-02-25T21:03:07.103Z,98309.91
2023-02-25T21:05:34.318Z,98300.53
2023-02-25T21:08:01.586Z,98318.94
2023-02-25T21:10:29.178Z,98340.13
2023-02-25T21:12:56.392Z,98332.56
2023-02-25T21:15:23.542Z,98317.34
2023-02-25T21:17:51.064Z,98321.50
2023-02-25T21:20:18.253Z,98325.03
2023-02-25T21:22:45.569Z,98316.34
2023-02-25T21:25:13.278Z,98307.72
2023-02-25T21:27:40.449Z,98310.84
2023-02-25T21:30:07.844Z,98331.56
2023-02-25T21:32:35.494Z,98324.28
2023-02-25T21:35:02.809Z,98314.19
2023-02-25T21:37:30.510Z,98313.72
2023-02-25T21:39:58.126Z,98321.16
2023-02-25T21:42:25.292Z,98324.56
2023-02-25T21:44:52.514Z,98338.31
2023-02-25T21:47:20.131Z,98347.50
2023-02-25T21:49:47.453Z,98337.84
2023-02-25T21:52:16.504Z,98342.31
2023-02-25T21:54:44.090Z,98358.53
2023-02-25T21:57:11.339Z,98355.09
2023-02-25T21:59:38.546Z,98330.75
2023-02-25T22:02:05.991Z,98319.69
2023-02-25T22:04:33.498Z,98319.66
2023-02-25T22:07:00.767Z,98330.09
2023-02-25T22:09:28.167Z,98332.03
2023-02-25T22:11:55.576Z,98330.03
2023-02-25T22:14:24.814Z,98325.28
2023-02-25T22:16:51.993Z,98324.06
2023-02-25T22:19:19.429Z,98324.44
2023-02-25T22:21:46.778Z,98321.06
2023-02-25T22:24:14.282Z,98310.31
2023-02-25T22:26:41.849Z,98305.09
2023-02-25T22:29:09.814Z,98305.94
2023-02-25T22:31:37.098Z,98308.72
2023-02-25T22:34:04.835Z,98315.50
2023-02-25T22:36:32.035Z,98321.50
2023-02-25T22:38:59.187Z,98326.06
2023-02-25T22:41:27.949Z,98340.31
2023-02-25T22:43:55.175Z,98345.72
2023-02-25T22:46:23.976Z,98348.91
2023-02-25T22:48:51.549Z,98333.00
2023-02-25T22:51:23.231Z,98317.84
2023-02-25T22:53:50.438Z,98312.31
2023-02-25T22:56:17.849Z,98327.16
2023-02-25T22:58:45.119Z,98323.63
2023-02-25T23:01:12.989Z,98331.50
2023-02-25T23:03:40.713Z,98304.59
2023-02-25T23:06:07.865Z,98295.75
2023-02-25T23:08:35.266Z,98333.38
2023-02-25T23:11:11.936Z,98321.53
2023-02-25T23:13:45.954Z,98329.34
2023-02-25T23:16:17.382Z,98333.66
2023-02-25T23:18:45.114Z,98334.91
2023-02-25T23:21:16.477Z,98316.28
2023-02-25T23:23:43.986Z,98310.88
2023-02-25T23:26:12.153Z,98318.91
2023-02-25T23:28:39.440Z,98325.41
2023-02-25T23:31:07.019Z,98321.78
2023-02-25T23:33:34.281Z,98335.22
2023-02-25T23:36:04.765Z,98330.94
2023-02-25T23:38:32.246Z,98318.63
2023-02-25T23:40:59.640Z,98300.44
2023-02-25T23:43:26.755Z,98317.88
2023-02-25T23:45:54.222Z,98331.56
2023-02-25T23:48:21.393Z,98339.91
2023-02-25T23:50:48.584Z,98336.12
2023-02-25T23:53:16.112Z,98353.88
2023-02-25T23:55:43.299Z,98380.19
2023-02-25T23:58:10.741Z,98384.16
